Time;durP1;ratioP1;P1;durP2;ratioP2;P2;SDS_P1;SDS_P2;PMS_P1;PMS_P2;Temp;Humidity;BMP_temperature;BMP_pressure;BME280_temperature;BME280_humidity;BME280_pressure;Samples;Min_cycle;Max_cycle;Signal;HPM_P1;HPM_P2
2022/05/20 00:01:27;;;;;;;;;;;14.20;68.60;;;;;;5088456;28;20034;-71
2022/05/20 00:03:52;;;;;;;;;;;14.20;68.70;;;;;;5073140;28;19912;-71
2022/05/20 00:06:18;;;;;;;;;;;14.20;69.10;;;;;;5072762;28;20248;-71
2022/05/20 00:08:44;;;;;;;;;;;14.10;69.30;;;;;;5073181;28;19912;-71
2022/05/20 00:11:09;;;;;;;;;;;14.10;69.80;;;;;;5073091;28;20026;-71
2022/05/20 00:13:35;;;;;;;;;;;14.10;69.20;;;;;;5071671;28;19912;-71
2022/05/20 00:16:01;;;;;;;;;;;14.10;69.40;;;;;;5088465;28;20003;-71
2022/05/20 00:18:27;;;;;;;;;;;14.10;70.00;;;;;;5072989;28;19920;-71
2022/05/20 00:20:53;;;;;;;;;;;14.20;69.50;;;;;;5072125;28;19939;-71
2022/05/20 00:23:19;;;;;;;;;;;14.10;69.70;;;;;;5072795;28;19916;-71
2022/05/20 00:25:48;;;;;;;;;;;14.10;69.80;;;;;;5072336;28;19913;-71
2022/05/20 00:28:14;;;;;;;;;;;14.10;69.80;;;;;;5072408;28;19935;-71
2022/05/20 00:30:41;;;;;;;;;;;14.10;70.00;;;;;;5072399;28;19923;-71
2022/05/20 00:33:06;;;;;;;;;;;14.10;69.60;;;;;;5072326;28;19920;-71
2022/05/20 00:35:32;;;;;;;;;;;14.10;69.70;;;;;;5072036;28;20296;-71
2022/05/20 00:37:57;;;;;;;;;;;14.10;70.80;;;;;;5072469;28;19908;-72
2022/05/20 00:40:25;;;;;;;;;;;14.10;70.70;;;;;;5072434;28;20394;-71
2022/05/20 00:42:50;;;;;;;;;;;14.10;69.90;;;;;;5072433;28;19913;-71
2022/05/20 00:45:17;;;;;;;;;;;14.10;70.10;;;;;;5072342;28;19912;-71
2022/05/20 00:47:42;;;;;;;;;;;14.20;70.40;;;;;;5072122;28;19924;-71
2022/05/20 00:50:10;;;;;;;;;;;14.10;70.00;;;;;;5072273;28;19912;-71
2022/05/20 00:52:38;;;;;;;;;;;14.10;69.90;;;;;;5070607;28;19921;-71
2022/05/20 00:55:10;;;;;;;;;;;14.20;70.30;;;;;;5072161;28;20463;-71
2022/05/20 00:58:04;;;;;;;;;;;14.10;69.90;;;;;;5087427;28;20383;-70
2022/05/20 01:00:30;;;;;;;;;;;14.10;69.90;;;;;;5069395;28;20392;-70
2022/05/20 01:02:59;;;;;;;;;;;14.10;70.00;;;;;;5071983;28;19913;-70
2022/05/20 01:05:31;;;;;;;;;;;14.00;70.10;;;;;;5072093;28;20328;-70
2022/05/20 01:07:56;;;;;;;;;;;14.00;70.10;;;;;;5071811;28;19912;-70
2022/05/20 01:10:23;;;;;;;;;;;14.00;70.50;;;;;;5072060;28;20018;-70
2022/05/20 01:12:53;;;;;;;;;;;14.00;70.50;;;;;;5072102;28;19919;-71
2022/05/20 01:15:18;;;;;;;;;;;14.00;70.50;;;;;;5071806;28;19938;-71
2022/05/20 01:17:44;;;;;;;;;;;13.90;70.60;;;;;;5071933;28;19913;-71
2022/05/20 01:20:13;;;;;;;;;;;14.00;70.80;;;;;;5070413;28;19967;-71
2022/05/20 01:22:47;;;;;;;;;;;13.90;70.80;;;;;;5071669;28;20304;-71
2022/05/20 01:25:13;;;;;;;;;;;13.90;71.00;;;;;;5071805;28;20301;-71
2022/05/20 01:27:46;;;;;;;;;;;13.90;71.10;;;;;;5071468;28;20269;-71
2022/05/20 01:30:13;;;;;;;;;;;13.90;71.10;;;;;;5071769;28;19967;-71
2022/05/20 01:32:39;;;;;;;;;;;13.90;71.40;;;;;;5070618;28;19946;-71
2022/05/20 01:35:05;;;;;;;;;;;13.90;71.30;;;;;;5071557;28;20356;-70
2022/05/20 01:37:31;;;;;;;;;;;13.90;71.30;;;;;;5071306;28;19985;-71
2022/05/20 01:40:00;;;;;;;;;;;13.90;71.60;;;;;;5071635;28;20404;-70
2022/05/20 01:42:29;;;;;;;;;;;13.90;71.90;;;;;;5071382;28;20383;-71
2022/05/20 01:45:15;;;;;;;;;;;13.90;71.90;;;;;;5071442;28;19924;-71
2022/05/20 01:47:46;;;;;;;;;;;13.90;71.70;;;;;;5070742;28;20356;-70
2022/05/20 01:50:18;;;;;;;;;;;13.80;71.80;;;;;;5071515;28;19913;-70
2022/05/20 01:52:46;;;;;;;;;;;13.80;71.90;;;;;;5071540;28;20257;-70
2022/05/20 01:55:17;;;;;;;;;;;13.70;72.10;;;;;;5071022;28;19916;-70
2022/05/20 01:57:49;;;;;;;;;;;13.70;72.20;;;;;;5071239;28;19978;-71
2022/05/20 02:00:22;;;;;;;;;;;13.70;72.40;;;;;;5071422;28;19962;-71
2022/05/20 02:03:17;;;;;;;;;;;13.70;72.60;;;;;;5071304;28;19913;-70
2022/05/20 02:06:04;;;;;;;;;;;13.70;72.70;;;;;;5057802;28;19924;-70
2022/05/20 02:08:33;;;;;;;;;;;13.60;73.00;;;;;;5070899;28;19912;-70
2022/05/20 02:11:04;;;;;;;;;;;13.60;73.40;;;;;;5070896;28;19912;-69
2022/05/20 02:13:30;;;;;;;;;;;13.60;73.50;;;;;;5070905;28;20276;-69
2022/05/20 02:15:59;;;;;;;;;;;13.60;73.60;;;;;;5070768;28;19959;-70
2022/05/20 02:18:30;;;;;;;;;;;13.50;73.70;;;;;;5070971;28;19912;-70
2022/05/20 02:21:01;;;;;;;;;;;13.50;73.90;;;;;;5071008;28;20387;-70
2022/05/20 02:23:33;;;;;;;;;;;13.50;74.00;;;;;;5070860;28;19924;-70
2022/05/20 02:26:04;;;;;;;;;;;13.50;74.30;;;;;;5071076;28;19912;-70
2022/05/20 02:28:34;;;;;;;;;;;13.50;74.40;;;;;;5070755;28;20009;-70
2022/05/20 02:30:59;;;;;;;;;;;13.50;74.50;;;;;;5077029;28;19920;-70
2022/05/20 02:33:27;;;;;;;;;;;13.50;74.40;;;;;;5072558;28;20333;-70
2022/05/20 02:36:00;;;;;;;;;;;13.50;74.60;;;;;;5070690;28;20319;-70
2022/05/20 02:38:25;;;;;;;;;;;13.50;74.80;;;;;;5070815;28;19974;-70
2022/05/20 02:40:52;;;;;;;;;;;13.50;74.80;;;;;;5070732;28;20372;-70
2022/05/20 02:43:19;;;;;;;;;;;13.50;74.80;;;;;;5071242;28;20360;-70
2022/05/20 02:45:46;;;;;;;;;;;13.50;74.90;;;;;;5074269;28;19908;-70
2022/05/20 02:48:13;;;;;;;;;;;13.50;75.00;;;;;;5074215;28;19991;-70
2022/05/20 02:50:38;;;;;;;;;;;13.50;75.30;;;;;;5074116;28;19913;-70
2022/05/20 02:53:04;;;;;;;;;;;13.50;75.50;;;;;;5074396;28;19908;-70
2022/05/20 02:55:30;;;;;;;;;;;13.40;75.50;;;;;;5074427;28;20249;-70
2022/05/20 02:57:55;;;;;;;;;;;13.40;76.00;;;;;;5074229;28;20374;-70
2022/05/20 03:05:50;;;;;;;;;;;13.50;75.90;;;;;;5073942;28;19923;-71
2022/05/20 03:08:16;;;;;;;;;;;13.50;76.20;;;;;;5073828;28;19908;-70
2022/05/20 03:10:42;;;;;;;;;;;13.50;76.30;;;;;;5073843;28;20341;-71
2022/05/20 03:13:07;;;;;;;;;;;13.50;76.40;;;;;;5073905;28;19913;-71
2022/05/20 03:15:33;;;;;;;;;;;13.50;76.40;;;;;;5073539;28;19917;-70
2022/05/20 03:17:58;;;;;;;;;;;13.60;76.70;;;;;;5074054;28;20334;-70
2022/05/20 03:20:25;;;;;;;;;;;13.50;76.90;;;;;;5073450;28;20011;-71
2022/05/20 03:22:50;;;;;;;;;;;13.50;77.10;;;;;;5073610;28;19943;-70
2022/05/20 03:25:16;;;;;;;;;;;13.50;77.20;;;;;;5073981;28;20368;-71
2022/05/20 03:27:41;;;;;;;;;;;13.50;77.60;;;;;;5073570;28;19916;-71
2022/05/20 03:30:09;;;;;;;;;;;13.50;77.70;;;;;;5073783;28;20292;-71
2022/05/20 03:32:34;;;;;;;;;;;13.50;77.90;;;;;;5073656;28;20280;-70
2022/05/20 03:34:59;;;;;;;;;;;13.50;78.10;;;;;;5071934;28;19913;-71
2022/05/20 03:37:25;;;;;;;;;;;13.50;78.20;;;;;;5073331;28;19939;-71
2022/05/20 03:39:51;;;;;;;;;;;13.50;78.20;;;;;;5073779;28;19919;-70
2022/05/20 03:42:16;;;;;;;;;;;13.50;78.20;;;;;;5073218;28;19913;-71
2022/05/20 03:44:42;;;;;;;;;;;13.60;78.50;;;;;;5073561;28;19923;-71
2022/05/20 03:47:07;;;;;;;;;;;13.60;78.60;;;;;;5073542;28;20339;-71
2022/05/20 03:49:33;;;;;;;;;;;13.60;79.30;;;;;;5073456;28;20051;-71
2022/05/20 03:51:58;;;;;;;;;;;13.70;78.90;;;;;;5073306;28;20318;-71
2022/05/20 03:54:25;;;;;;;;;;;13.70;78.80;;;;;;5073351;28;19913;-70
2022/05/20 03:56:51;;;;;;;;;;;13.70;78.70;;;;;;5072600;28;19966;-71
2022/05/20 03:59:16;;;;;;;;;;;13.70;78.60;;;;;;5073166;28;19913;-71
2022/05/20 04:01:57;;;;;;;;;;;13.80;80.60;;;;;;5071666;28;20360;-71
2022/05/20 04:04:24;;;;;;;;;;;13.80;81.00;;;;;;5073105;28;19943;-71
2022/05/20 04:06:50;;;;;;;;;;;13.80;79.40;;;;;;5072772;28;20288;-71
2022/05/20 04:09:16;;;;;;;;;;;13.90;79.50;;;;;;5072875;28;19920;-71
2022/05/20 04:11:41;;;;;;;;;;;14.00;81.10;;;;;;5072727;28;19916;-71
2022/05/20 04:14:07;;;;;;;;;;;14.00;80.90;;;;;;5072782;28;19912;-71
2022/05/20 04:16:33;;;;;;;;;;;14.00;79.60;;;;;;5071193;28;19971;-71
2022/05/20 04:18:58;;;;;;;;;;;14.10;81.70;;;;;;5072783;28;19956;-70
2022/05/20 04:21:24;;;;;;;;;;;14.10;82.30;;;;;;5072266;28;19920;-70
2022/05/20 04:23:50;;;;;;;;;;;14.10;82.30;;;;;;5072610;28;19974;-70
2022/05/20 04:26:15;;;;;;;;;;;14.10;82.80;;;;;;5072255;28;20372;-70
2022/05/20 04:28:41;;;;;;;;;;;14.00;83.40;;;;;;5072190;28;19920;-71
2022/05/20 04:31:07;;;;;;;;;;;14.10;84.60;;;;;;5072408;28;19915;-71
2022/05/20 04:33:33;;;;;;;;;;;14.10;87.70;;;;;;5072237;28;19917;-71
2022/05/20 04:35:59;;;;;;;;;;;14.00;89.60;;;;;;5072049;28;19934;-71
2022/05/20 04:38:25;;;;;;;;;;;14.00;90.80;;;;;;5072073;28;19912;-71
2022/05/20 04:49:09;;;;;;;;;;;13.80;94.00;;;;;;5072015;28;19924;-71
2022/05/20 04:51:35;;;;;;;;;;;13.70;94.40;;;;;;5071797;28;19909;-70
2022/05/20 04:56:45;;;;;;;;;;;13.70;93.40;;;;;;5071813;28;19935;-71
2022/05/20 04:59:11;;;;;;;;;;;13.70;92.60;;;;;;5070444;28;19917;-63
2022/05/20 05:01:36;;;;;;;;;;;13.70;94.60;;;;;;5071627;28;19918;-64
2022/05/20 05:04:02;;;;;;;;;;;13.80;95.60;;;;;;5071808;28;19921;-64
2022/05/20 05:06:27;;;;;;;;;;;13.80;95.40;;;;;;5071481;28;19986;-64
2022/05/20 05:08:53;;;;;;;;;;;13.80;95.40;;;;;;5071822;28;20134;-64
2022/05/20 05:11:20;;;;;;;;;;;13.90;94.80;;;;;;5072001;28;19909;-63
2022/05/20 05:13:45;;;;;;;;;;;13.90;94.50;;;;;;5071985;28;19939;-63
2022/05/20 05:16:11;;;;;;;;;;;13.90;94.20;;;;;;5071407;28;20257;-63
2022/05/20 05:18:37;;;;;;;;;;;13.90;94.50;;;;;;5071626;28;19917;-66
2022/05/20 05:21:03;;;;;;;;;;;13.90;94.60;;;;;;5071303;28;19908;-63
2022/05/20 05:23:28;;;;;;;;;;;13.90;95.40;;;;;;5071943;28;19932;-64
2022/05/20 05:25:54;;;;;;;;;;;13.90;95.60;;;;;;5071395;28;19908;-63
2022/05/20 05:28:20;;;;;;;;;;;13.90;95.90;;;;;;5071270;28;20003;-63
2022/05/20 05:30:46;;;;;;;;;;;14.00;97.60;;;;;;5071274;28;19934;-64
2022/05/20 05:33:12;;;;;;;;;;;14.00;96.60;;;;;;5071516;28;19908;-63
2022/05/20 05:35:37;;;;;;;;;;;14.10;94.70;;;;;;5071200;28;20261;-63
2022/05/20 05:38:03;;;;;;;;;;;14.00;94.90;;;;;;5071056;28;19909;-63
2022/05/20 05:40:30;;;;;;;;;;;14.00;95.30;;;;;;5071375;28;20260;-63
2022/05/20 05:42:56;;;;;;;;;;;14.10;95.60;;;;;;5071305;28;19913;-63
2022/05/20 05:45:23;;;;;;;;;;;14.10;95.40;;;;;;5071546;28;20372;-64
2022/05/20 05:47:54;;;;;;;;;;;14.10;95.70;;;;;;5071095;28;20287;-63
2022/05/20 05:50:20;;;;;;;;;;;14.10;95.20;;;;;;5071606;28;19968;-64
2022/05/20 05:52:45;;;;;;;;;;;14.00;95.60;;;;;;5071370;28;19944;-63
2022/05/20 05:55:11;;;;;;;;;;;14.10;96.40;;;;;;5069837;28;20406;-64
2022/05/20 05:57:36;;;;;;;;;;;14.10;95.80;;;;;;5069539;28;19909;-63
2022/05/20 06:00:03;;;;;;;;;;;14.10;95.50;;;;;;5070803;28;19916;-63
2022/05/20 06:02:29;;;;;;;;;;;14.10;96.00;;;;;;5070901;28;19912;-64
2022/05/20 06:04:54;;;;;;;;;;;14.10;96.50;;;;;;5071284;28;20276;-63
2022/05/20 06:07:19;;;;;;;;;;;14.00;96.00;;;;;;5070635;28;20034;-63
2022/05/20 06:09:45;;;;;;;;;;;14.00;96.10;;;;;;5069554;28;20344;-73
2022/05/20 06:12:12;;;;;;;;;;;14.00;96.50;;;;;;5069791;28;19962;-73
2022/05/20 06:14:38;;;;;;;;;;;14.00;97.10;;;;;;5071236;28;19917;-73
2022/05/20 06:17:04;;;;;;;;;;;14.00;98.00;;;;;;5069308;28;19920;-72
2022/05/20 06:19:29;;;;;;;;;;;14.00;98.70;;;;;;5071876;28;20023;-73
2022/05/20 06:21:55;;;;;;;;;;;14.10;99.50;;;;;;5073107;28;20458;-73
2022/05/20 06:24:20;;;;;;;;;;;14.10;99.90;;;;;;5075003;28;19917;-73
2022/05/20 06:26:47;;;;;;;;;;;14.20;99.90;;;;;;5074563;28;19909;-73
2022/05/20 06:29:13;;;;;;;;;;;14.30;99.90;;;;;;5073335;28;19959;-72
2022/05/20 06:31:38;;;;;;;;;;;14.40;99.90;;;;;;5074804;28;20446;-73
2022/05/20 06:34:04;;;;;;;;;;;14.50;99.90;;;;;;5074740;28;20295;-72
2022/05/20 06:42:15;;;;;;;;;;;15.00;99.90;;;;;;5051987;28;20288;-72
2022/05/20 06:44:40;;;;;;;;;;;15.10;99.90;;;;;;5064453;28;19920;-72
2022/05/20 06:47:06;;;;;;;;;;;15.40;99.90;;;;;;5074243;28;19977;-72
2022/05/20 06:49:32;;;;;;;;;;;15.60;99.90;;;;;;5074499;28;20276;-72
2022/05/20 06:52:00;;;;;;;;;;;15.90;99.90;;;;;;5074177;28;19958;-74
2022/05/20 06:54:26;;;;;;;;;;;16.10;99.90;;;;;;5074293;28;19927;-72
2022/05/20 06:56:51;;;;;;;;;;;16.10;99.90;;;;;;5074139;28;19916;-73
2022/05/20 06:59:17;;;;;;;;;;;16.00;99.90;;;;;;5072723;28;20273;-73
2022/05/20 07:01:42;;;;;;;;;;;16.00;99.90;;;;;;5074093;28;19954;-72
2022/05/20 07:04:08;;;;;;;;;;;16.00;99.90;;;;;;5074062;28;19916;-72
2022/05/20 07:06:34;;;;;;;;;;;16.00;99.90;;;;;;5073942;28;20361;-73
2022/05/20 07:09:00;;;;;;;;;;;15.90;99.90;;;;;;5072544;28;19917;-72
2022/05/20 07:11:25;;;;;;;;;;;16.00;99.90;;;;;;5073760;28;20284;-73
2022/05/20 07:13:58;;;;;;;;;;;16.00;99.90;;;;;;5073809;28;20387;-73
2022/05/20 07:16:24;;;;;;;;;;;16.00;99.90;;;;;;5073864;28;20307;-73
2022/05/20 07:18:50;;;;;;;;;;;16.00;99.90;;;;;;5072541;28;20139;-73
2022/05/20 07:21:15;;;;;;;;;;;15.90;99.90;;;;;;5073663;28;19920;-73
2022/05/20 07:23:41;;;;;;;;;;;15.80;99.90;;;;;;5073856;28;20356;-72
2022/05/20 07:26:08;;;;;;;;;;;15.70;99.90;;;;;;5073622;28;19912;-73
2022/05/20 07:28:34;;;;;;;;;;;15.50;99.90;;;;;;5073512;28;20127;-72
2022/05/20 07:30:59;;;;;;;;;;;15.30;99.90;;;;;;5070978;28;19909;-72
2022/05/20 07:33:25;;;;;;;;;;;15.20;99.90;;;;;;5072118;28;20348;-72
2022/05/20 07:35:50;;;;;;;;;;;15.10;99.90;;;;;;5073642;28;20038;-72
2022/05/20 07:38:16;;;;;;;;;;;15.00;99.90;;;;;;5072042;28;20299;-71
2022/05/20 07:40:43;;;;;;;;;;;15.00;99.90;;;;;;5073363;28;19909;-71
2022/05/20 07:43:08;;;;;;;;;;;14.90;99.90;;;;;;5073462;28;19964;-72
2022/05/20 07:45:34;;;;;;;;;;;14.90;99.90;;;;;;5071951;28;19909;-72
2022/05/20 07:48:00;;;;;;;;;;;15.00;99.90;;;;;;5073222;28;20399;-72
2022/05/20 07:50:26;;;;;;;;;;;15.00;99.90;;;;;;5073605;28;19917;-72
2022/05/20 07:55:38;;;;;;;;;;;15.30;99.90;;;;;;5073161;28;19969;-72
2022/05/20 07:58:06;;;;;;;;;;;15.20;99.90;;;;;;5071659;28;20017;-72
2022/05/20 08:00:33;;;;;;;;;;;15.30;99.90;;;;;;5072907;28;20283;-72
2022/05/20 08:03:01;;;;;;;;;;;15.40;99.90;;;;;;5073046;28;19971;-72
2022/05/20 08:05:28;;;;;;;;;;;15.50;99.90;;;;;;5073354;28;20356;-71
2022/05/20 08:07:56;;;;;;;;;;;15.60;99.90;;;;;;5071508;28;20353;-72
2022/05/20 08:10:22;;;;;;;;;;;15.70;99.90;;;;;;5072694;28;19913;-72
2022/05/20 08:12:48;;;;;;;;;;;15.80;99.90;;;;;;5072754;28;19920;-71
2022/05/20 08:15:15;;;;;;;;;;;16.00;99.90;;;;;;5072983;28;19912;-72
2022/05/20 08:17:41;;;;;;;;;;;16.30;99.90;;;;;;5072787;28;19920;-73
2022/05/20 08:20:25;;;;;;;;;;;16.40;99.90;;;;;;5072934;28;19982;-72
2022/05/20 08:22:54;;;;;;;;;;;16.30;99.90;;;;;;5071085;28;19957;-73
2022/05/20 08:25:20;;;;;;;;;;;16.30;99.90;;;;;;5072930;28;19920;-71
2022/05/20 08:27:46;;;;;;;;;;;16.20;99.90;;;;;;5072409;28;19962;-72
2022/05/20 08:30:13;;;;;;;;;;;16.10;99.90;;;;;;5072740;28;19920;-72
2022/05/20 08:32:39;;;;;;;;;;;16.00;99.90;;;;;;5072380;28;20341;-72
2022/05/20 08:35:05;;;;;;;;;;;16.00;99.90;;;;;;5072184;28;19963;-72
2022/05/20 08:37:31;;;;;;;;;;;15.90;99.90;;;;;;5072098;28;19955;-72
2022/05/20 08:39:56;;;;;;;;;;;15.90;99.90;;;;;;5072351;28;19964;-73
2022/05/20 08:42:23;;;;;;;;;;;15.80;99.90;;;;;;5071974;28;19943;-73
2022/05/20 08:44:49;;;;;;;;;;;15.90;99.90;;;;;;5070910;28;19916;-72
2022/05/20 08:47:22;;;;;;;;;;;16.00;99.90;;;;;;5072070;28;19908;-71
2022/05/20 08:49:50;;;;;;;;;;;16.00;99.90;;;;;;5070853;28;19966;-72
2022/05/20 08:52:15;;;;;;;;;;;16.10;99.90;;;;;;5070542;28;20343;-71
2022/05/20 08:54:41;;;;;;;;;;;16.30;99.90;;;;;;5071938;28;19948;-72
2022/05/20 08:57:23;;;;;;;;;;;16.40;99.90;;;;;;5071854;28;19912;-72
2022/05/20 08:59:49;;;;;;;;;;;16.70;99.90;;;;;;5072160;28;19924;-72
2022/05/20 09:02:15;;;;;;;;;;;17.00;99.90;;;;;;5071769;28;19908;-72
2022/05/20 09:04:40;;;;;;;;;;;17.30;99.90;;;;;;5071484;28;19970;-72
2022/05/20 09:07:11;;;;;;;;;;;17.70;99.90;;;;;;5071562;28;19958;-72
2022/05/20 09:09:53;;;;;;;;;;;18.10;99.90;;;;;;5071838;28;19921;-72
2022/05/20 09:12:36;;;;;;;;;;;18.60;99.90;;;;;;5071599;28;19912;-73
2022/05/20 09:18:02;;;;;;;;;;;19.10;99.90;;;;;;5071997;28;20446;-72
2022/05/20 09:20:28;;;;;;;;;;;19.30;99.90;;;;;;5071689;28;19920;-73
2022/05/20 09:22:55;;;;;;;;;;;19.50;99.90;;;;;;5070100;28;19927;-72
2022/05/20 09:25:25;;;;;;;;;;;19.40;99.90;;;;;;5071736;28;19917;-72
2022/05/20 09:27:52;;;;;;;;;;;19.40;99.90;;;;;;5071368;28;19932;-73
2022/05/20 09:30:20;;;;;;;;;;;19.30;99.90;;;;;;5070049;28;20015;-73
2022/05/20 09:33:06;;;;;;;;;;;19.20;99.90;;;;;;5071387;28;19916;-73
2022/05/20 09:35:34;;;;;;;;;;;19.20;99.90;;;;;;5063793;28;20314;-72
2022/05/20 09:38:07;;;;;;;;;;;19.20;99.90;;;;;;5069870;28;19915;-72
2022/05/20 09:40:34;;;;;;;;;;;19.30;99.90;;;;;;5069848;28;19923;-71
2022/05/20 09:43:00;;;;;;;;;;;19.60;99.90;;;;;;5069795;28;20327;-71
2022/05/20 09:45:26;;;;;;;;;;;19.70;99.90;;;;;;5071668;28;19970;-72
2022/05/20 09:47:53;;;;;;;;;;;19.70;99.90;;;;;;5070473;28;20004;-66
2022/05/20 09:50:30;;;;;;;;;;;19.90;99.90;;;;;;5073608;28;19916;-66
2022/05/20 09:53:01;;;;;;;;;;;20.40;99.90;;;;;;5086280;28;19919;-66
2022/05/20 09:55:27;;;;;;;;;;;20.70;99.90;;;;;;5088245;28;20044;-66
2022/05/20 09:57:57;;;;;;;;;;;21.20;99.90;;;;;;5073631;28;20283;-67
2022/05/20 10:00:26;;;;;;;;;;;21.40;99.90;;;;;;5071781;28;19982;-67
2022/05/20 10:03:05;;;;;;;;;;;21.70;99.40;;;;;;5078793;28;20367;-66
2022/05/20 10:05:32;;;;;;;;;;;22.10;99.10;;;;;;5082593;28;19916;-66
2022/05/20 10:08:16;;;;;;;;;;;22.50;94.60;;;;;;5092070;28;19908;-66
2022/05/20 10:10:54;;;;;;;;;;;22.90;93.90;;;;;;5075744;28;20023;-67
2022/05/20 10:13:45;;;;;;;;;;;22.90;90.50;;;;;;5072632;28;19913;-67
2022/05/20 10:16:31;;;;;;;;;;;22.70;89.90;;;;;;5055055;28;19916;-66
2022/05/20 10:19:15;;;;;;;;;;;22.50;90.00;;;;;;5076184;28;20015;-69
2022/05/20 10:21:48;;;;;;;;;;;22.30;89.50;;;;;;5080733;28;19920;-67
2022/05/20 10:24:14;;;;;;;;;;;22.10;88.20;;;;;;5081621;28;19920;-67
2022/05/20 10:26:39;;;;;;;;;;;21.70;88.60;;;;;;5074518;28;20364;-67
2022/05/20 10:34:36;;;;;;;;;;;20.80;89.80;;;;;;5083606;28;20272;-66
2022/05/20 10:37:07;;;;;;;;;;;21.50;88.60;;;;;;5070888;28;19913;-67
2022/05/20 10:39:32;;;;;;;;;;;22.30;87.10;;;;;;5084994;28;19955;-67
2022/05/20 10:42:17;;;;;;;;;;;23.00;83.20;;;;;;5081638;28;19974;-66
2022/05/20 10:50:24;;;;;;;;;;;24.40;80.70;;;;;;5079291;28;19969;-66
2022/05/20 10:53:22;;;;;;;;;;;24.70;80.80;;;;;;5082505;28;20003;-67
2022/05/20 10:55:57;;;;;;;;;;;24.90;76.20;;;;;;5054722;28;19924;-66
2022/05/20 10:58:25;;;;;;;;;;;25.10;76.90;;;;;;5086883;28;19944;-67
2022/05/20 11:00:52;;;;;;;;;;;25.50;76.50;;;;;;5085314;28;19963;-66
2022/05/20 11:03:23;;;;;;;;;;;25.60;72.80;;;;;;5077734;28;19912;-66
2022/05/20 11:06:00;;;;;;;;;;;25.60;73.60;;;;;;5077690;28;19912;-66
2022/05/20 11:08:45;;;;;;;;;;;25.70;75.60;;;;;;5073872;28;20006;-65
2022/05/20 11:11:19;;;;;;;;;;;25.80;76.50;;;;;;5077956;28;20375;-66
2022/05/20 11:13:45;;;;;;;;;;;25.60;74.90;;;;;;5095185;28;19923;-66
2022/05/20 11:16:23;;;;;;;;;;;25.30;75.10;;;;;;5093209;28;19912;-65
2022/05/20 11:19:00;;;;;;;;;;;24.70;75.70;;;;;;5073904;28;19962;-66
2022/05/20 11:21:44;;;;;;;;;;;24.40;76.00;;;;;;5077899;28;19928;-67
2022/05/20 11:24:13;;;;;;;;;;;24.20;77.80;;;;;;5087770;28;19956;-66
2022/05/20 11:26:47;;;;;;;;;;;24.00;76.20;;;;;;5085727;28;19916;-66
2022/05/20 11:29:32;;;;;;;;;;;23.70;76.50;;;;;;5092906;28;19955;-66
2022/05/20 11:32:03;;;;;;;;;;;23.50;75.20;;;;;;5080981;28;20007;-66
2022/05/20 11:34:32;;;;;;;;;;;23.30;74.60;;;;;;5093986;28;19962;-66
2022/05/20 11:37:04;;;;;;;;;;;23.10;75.70;;;;;;5086410;28;19924;-66
2022/05/20 11:39:38;;;;;;;;;;;23.10;77.60;;;;;;5076947;28;19923;-66
2022/05/20 11:42:24;;;;;;;;;;;23.30;77.20;;;;;;5078936;28;20391;-66
2022/05/20 11:44:50;;;;;;;;;;;23.30;76.70;;;;;;5074705;28;19924;-66
2022/05/20 11:47:22;;;;;;;;;;;22.80;78.60;;;;;;5076989;28;19931;-66
2022/05/20 11:50:06;;;;;;;;;;;22.80;78.70;;;;;;5077551;28;20402;-65
2022/05/20 11:52:32;;;;;;;;;;;22.80;78.40;;;;;;5079941;28;19997;-65
2022/05/20 11:55:12;;;;;;;;;;;23.00;78.10;;;;;;5079222;28;20023;-66
2022/05/20 11:57:39;;;;;;;;;;;23.00;78.40;;;;;;5073844;28;19920;-66
2022/05/20 12:00:07;;;;;;;;;;;22.80;80.20;;;;;;5079556;28;19927;-66
2022/05/20 12:02:37;;;;;;;;;;;22.60;80.60;;;;;;5083356;28;19927;-66
2022/05/20 12:05:03;;;;;;;;;;;22.60;79.60;;;;;;5089178;28;19922;-66
2022/05/20 12:07:28;;;;;;;;;;;22.70;79.80;;;;;;5091132;28;20022;-66
2022/05/20 12:09:55;;;;;;;;;;;22.90;80.80;;;;;;5084313;28;20015;-66
2022/05/20 12:12:27;;;;;;;;;;;23.00;77.60;;;;;;5072738;28;19909;-65
2022/05/20 12:15:11;;;;;;;;;;;23.00;75.90;;;;;;5077226;28;19916;-66
2022/05/20 12:17:38;;;;;;;;;;;23.00;77.60;;;;;;5092178;28;20708;-66
2022/05/20 12:26:07;;;;;;;;;;;22.90;77.40;;;;;;5030200;28;19932;-66
2022/05/20 12:28:34;;;;;;;;;;;22.70;77.50;;;;;;5066183;28;19916;-65
2022/05/20 12:31:03;;;;;;;;;;;22.70;77.90;;;;;;5073073;28;19912;-65
2022/05/20 12:33:48;;;;;;;;;;;22.50;78.30;;;;;;5072228;28;19916;-65
2022/05/20 12:36:28;;;;;;;;;;;22.50;77.60;;;;;;5080984;28;19942;-66
2022/05/20 12:39:06;;;;;;;;;;;22.60;77.40;;;;;;5086527;28;19916;-65
2022/05/20 12:41:33;;;;;;;;;;;22.60;77.40;;;;;;5073745;28;19970;-65
2022/05/20 12:44:20;;;;;;;;;;;22.60;77.50;;;;;;5073255;28;19920;-66
2022/05/20 12:46:51;;;;;;;;;;;22.70;77.50;;;;;;5073774;28;20421;-66
2022/05/20 12:49:18;;;;;;;;;;;22.70;76.70;;;;;;5085595;28;19925;-66
2022/05/20 12:51:46;;;;;;;;;;;22.50;77.60;;;;;;5092678;28;19908;-65
2022/05/20 12:54:30;;;;;;;;;;;22.50;76.30;;;;;;5082901;28;19924;-66
2022/05/20 12:57:03;;;;;;;;;;;22.60;76.50;;;;;;5071803;28;19912;-66
2022/05/20 12:59:29;;;;;;;;;;;22.70;75.40;;;;;;5070345;28;20248;-65
2022/05/20 13:01:57;;;;;;;;;;;22.90;75.40;;;;;;5070214;28;20022;-67
2022/05/20 13:04:24;;;;;;;;;;;22.90;75.30;;;;;;5082382;28;20367;-66
2022/05/20 13:06:50;;;;;;;;;;;22.90;74.00;;;;;;5081413;28;20019;-66
2022/05/20 13:09:23;;;;;;;;;;;22.80;73.70;;;;;;5077602;28;19999;-66
2022/05/20 13:11:52;;;;;;;;;;;22.80;74.20;;;;;;5078360;28;19912;-66
2022/05/20 13:14:19;;;;;;;;;;;22.70;76.20;;;;;;5089724;28;19943;-65
2022/05/20 13:16:46;;;;;;;;;;;22.70;75.50;;;;;;5078703;28;19924;-66
2022/05/20 13:19:15;;;;;;;;;;;22.80;77.60;;;;;;5075889;28;20268;-66
2022/05/20 13:21:42;;;;;;;;;;;22.80;77.90;;;;;;5072043;28;19925;-65
2022/05/20 13:24:12;;;;;;;;;;;22.80;76.30;;;;;;5072338;28;19916;-66
2022/05/20 13:26:38;;;;;;;;;;;22.90;77.90;;;;;;5075750;28;20098;-66
2022/05/20 13:29:09;;;;;;;;;;;22.80;80.60;;;;;;5074683;28;20003;-66
2022/05/20 13:31:35;;;;;;;;;;;22.50;79.70;;;;;;5079619;28;20565;-62
2022/05/20 13:34:00;;;;;;;;;;;22.40;80.20;;;;;;5071537;28;20018;-74
2022/05/20 13:36:31;;;;;;;;;;;22.30;80.00;;;;;;5070221;28;19966;-73
2022/05/20 13:39:01;;;;;;;;;;;22.30;80.00;;;;;;5071372;28;20014;-75
2022/05/20 13:41:28;;;;;;;;;;;22.30;80.40;;;;;;5069695;28;20419;-73
2022/05/20 13:43:54;;;;;;;;;;;22.30;80.60;;;;;;5070001;28;19916;-73
2022/05/20 13:49:18;;;;;;;;;;;22.30;80.80;;;;;;5071616;28;19923;-73
2022/05/20 13:52:00;;;;;;;;;;;22.20;80.10;;;;;;5075225;28;20003;-66
2022/05/20 13:54:35;;;;;;;;;;;22.20;79.30;;;;;;5087404;28;19923;-66
2022/05/20 13:57:02;;;;;;;;;;;22.20;79.00;;;;;;5085496;28;20057;-66
2022/05/20 13:59:27;;;;;;;;;;;22.20;79.30;;;;;;5091490;28;19920;-65
2022/05/20 14:01:55;;;;;;;;;;;22.30;79.10;;;;;;5091976;28;19908;-64
2022/05/20 14:04:41;;;;;;;;;;;22.30;81.20;;;;;;5073069;28;19916;-65
2022/05/20 14:07:09;;;;;;;;;;;22.20;83.90;;;;;;5074758;28;19922;-65
2022/05/20 14:09:38;;;;;;;;;;;22.20;83.10;;;;;;5089078;28;20350;-65
2022/05/20 14:12:04;;;;;;;;;;;22.20;83.00;;;;;;5088346;28;19923;-65
2022/05/20 14:14:31;;;;;;;;;;;22.20;81.60;;;;;;5100253;28;20327;-66
2022/05/20 14:16:59;;;;;;;;;;;22.20;77.30;;;;;;5081802;28;19920;-65
2022/05/20 14:19:37;;;;;;;;;;;22.20;79.40;;;;;;5077796;28;19920;-65
2022/05/20 14:22:04;;;;;;;;;;;22.30;69.10;;;;;;5076696;28;20607;-67
2022/05/20 14:24:32;;;;;;;;;;;22.50;67.40;;;;;;5072534;28;19935;-66
2022/05/20 14:26:58;;;;;;;;;;;22.60;65.10;;;;;;5070730;28;20002;-65
2022/05/20 14:29:31;;;;;;;;;;;22.80;60.50;;;;;;5085244;28;20386;-67
2022/05/20 14:31:56;;;;;;;;;;;23.00;60.00;;;;;;5094424;28;19912;-66
2022/05/20 14:34:23;;;;;;;;;;;23.10;60.20;;;;;;5091667;28;19919;-61
2022/05/20 14:36:50;;;;;;;;;;;23.20;60.40;;;;;;5101769;28;19916;-65
2022/05/20 14:39:19;;;;;;;;;;;23.20;60.10;;;;;;5112086;28;19915;-66
2022/05/20 14:41:55;;;;;;;;;;;23.20;60.40;;;;;;5115597;28;19908;-66
2022/05/20 14:44:21;;;;;;;;;;;23.20;62.00;;;;;;5104291;28;19958;-67
2022/05/20 14:49:37;;;;;;;;;;;23.20;61.10;;;;;;5075556;28;19958;-65
2022/05/20 14:52:04;;;;;;;;;;;23.20;62.10;;;;;;5075028;28;19909;-66
2022/05/20 14:54:40;;;;;;;;;;;23.10;63.40;;;;;;5085155;28;20326;-65
2022/05/20 14:57:25;;;;;;;;;;;23.10;63.70;;;;;;5081071;28;19939;-73
2022/05/20 15:00:09;;;;;;;;;;;23.00;63.80;;;;;;5074366;28;20335;-73
2022/05/20 15:02:35;;;;;;;;;;;23.00;63.80;;;;;;5074408;28;20321;-75
2022/05/20 15:05:00;;;;;;;;;;;23.00;61.00;;;;;;5072709;28;19917;-73
2022/05/20 15:07:26;;;;;;;;;;;23.00;60.70;;;;;;5074204;28;19916;-73
2022/05/20 15:09:52;;;;;;;;;;;22.90;63.90;;;;;;5074456;28;19916;-72
2022/05/20 15:12:18;;;;;;;;;;;22.90;63.70;;;;;;5074135;28;20291;-72
2022/05/20 15:14:47;;;;;;;;;;;22.80;63.70;;;;;;5072805;28;20007;-72
2022/05/20 15:17:17;;;;;;;;;;;22.70;62.70;;;;;;5074028;28;19913;-72